Time;durP1;ratioP1;P1;durP2;ratioP2;P2;SDS_P1;SDS_P2;PMS_P1;PMS_P2;Temp;Humidity;BMP_temperature;BMP_pressure;BME280_temperature;BME280_humidity;BME280_pressure;Samples;Min_cycle;Max_cycle;Signal;HPM_P1;HPM_P2
2021/06/25 00:00:38;;;;;;;;;27.25;23.00;;;;;15.84;59.60;102056.03;4958747;28;45900;-75
2021/06/25 00:03:03;;;;;;;;;23.50;20.50;;;;;15.80;60.06;102043.81;4959409;28;47553;-75
2021/06/25 00:05:28;;;;;;;;;22.75;20.75;;;;;15.75;60.11;102055.41;4958924;28;45226;-76
2021/06/25 00:07:54;;;;;;;;;29.50;26.25;;;;;15.74;60.06;102042.22;4960588;28;45587;-76
2021/06/25 00:10:20;;;;;;;;;28.25;26.25;;;;;15.73;59.83;102046.66;4953269;28;47299;-76
2021/06/25 00:12:46;;;;;;;;;21.75;21.50;;;;;15.70;60.05;102036.19;4959877;28;46365;-76
2021/06/25 00:15:12;;;;;;;;;27.75;26.00;;;;;15.68;60.49;102045.94;4960087;28;47229;-76
2021/06/25 00:17:38;;;;;;;;;23.75;22.50;;;;;15.67;60.88;102043.34;4959776;28;45267;-76
2021/06/25 00:20:05;;;;;;;;;23.75;21.00;;;;;15.62;60.64;102041.75;4972119;28;46147;-76
2021/06/25 00:22:31;;;;;;;;;27.00;24.75;;;;;15.57;61.27;102034.84;4957981;28;46457;-76
2021/06/25 00:24:57;;;;;;;;;29.00;27.25;;;;;15.54;61.23;102038.47;4960272;28;45327;-77
2021/06/25 00:27:23;;;;;;;;;27.00;26.50;;;;;15.52;61.27;102033.22;4959520;28;45580;-77
2021/06/25 00:29:48;;;;;;;;;27.25;24.75;;;;;15.49;61.28;102033.31;4960290;28;45471;-76
2021/06/25 00:32:13;;;;;;;;;30.75;27.25;;;;;15.47;61.36;102031.63;4959863;28;45211;-76
2021/06/25 00:34:39;;;;;;;;;29.75;27.50;;;;;15.45;61.77;102031.69;4960476;28;45350;-76
2021/06/25 00:37:05;;;;;;;;;23.50;22.00;;;;;15.41;61.70;102030.03;4959822;28;45448;-76
2021/06/25 00:39:30;;;;;;;;;24.75;23.75;;;;;15.39;62.06;102026.59;4960301;28;45184;-76
2021/06/25 00:41:55;;;;;;;;;27.00;22.00;;;;;15.38;62.19;102022.22;4959705;28;45455;-76
2021/06/25 00:44:21;;;;;;;;;23.75;21.75;;;;;15.36;62.10;102021.41;4959967;28;45306;-76
2021/06/25 00:46:47;;;;;;;;;28.75;25.25;;;;;15.32;62.46;102019.75;4959917;28;45431;-76
2021/06/25 00:49:14;;;;;;;;;26.50;24.75;;;;;15.29;62.52;102023.38;4959639;28;45367;-76
2021/06/25 00:51:40;;;;;;;;;30.75;25.25;;;;;15.29;62.36;102018.06;4974980;28;48208;-76
2021/06/25 00:54:10;;;;;;;;;32.75;27.25;;;;;15.27;62.61;102018.13;4959925;28;45317;-76
2021/06/25 00:56:37;;;;;;;;;29.75;26.25;;;;;15.22;62.85;102012.13;4957871;28;45567;-75
2021/06/25 00:59:03;;;;;;;;;21.25;19.75;;;;;15.21;62.93;101998.94;4959282;28;45455;-76
2021/06/25 01:01:29;;;;;;;;;28.25;25.00;;;;;15.17;63.25;102004.31;4959579;28;45594;-76
2021/06/25 01:03:54;;;;;;;;;22.25;22.25;;;;;15.12;63.16;101998.31;4959962;28;45500;-75
2021/06/25 01:06:20;;;;;;;;;26.75;25.75;;;;;15.09;63.15;101997.56;4959378;28;45848;-75
2021/06/25 01:08:45;;;;;;;;;27.00;23.00;;;;;15.05;63.47;101997.66;4962632;28;45310;-76
2021/06/25 01:11:11;;;;;;;;;28.75;25.75;;;;;15.03;62.98;101994.19;4966930;28;48321;-76
2021/06/25 01:13:40;;;;;;;;;22.25;22.25;;;;;15.03;63.33;101999.47;4962691;28;45226;-76
2021/06/25 01:16:06;;;;;;;;;27.75;24.25;;;;;15.00;63.47;101988.97;4962559;28;45448;-76
2021/06/25 01:18:32;;;;;;;;;26.75;25.25;;;;;14.99;63.49;101983.75;4963088;28;45321;-76
2021/06/25 01:20:59;;;;;;;;;27.25;24.00;;;;;14.95;63.71;101985.59;4962642;28;45518;-76
2021/06/25 01:23:26;;;;;;;;;26.00;24.25;;;;;14.90;63.92;101987.53;4961703;28;45706;-76
2021/06/25 01:25:52;;;;;;;;;27.50;25.00;;;;;14.92;63.77;101983.91;4962208;28;45482;-76
2021/06/25 01:28:18;;;;;;;;;25.25;24.75;;;;;14.89;64.17;101985.81;4962659;28;45585;-76
2021/06/25 01:30:45;;;;;;;;;27.75;22.75;;;;;14.91;64.21;101983.97;4962431;28;46465;-76
2021/06/25 01:33:14;;;;;;;;;28.50;27.00;;;;;14.88;63.87;101979.66;4962195;28;45575;-76
2021/06/25 01:35:40;;;;;;;;;27.50;25.00;;;;;14.87;64.27;101983.19;4962490;28;45463;-76
2021/06/25 01:38:07;;;;;;;;;27.50;26.00;;;;;14.83;64.32;101978.88;4961397;28;46037;-75
2021/06/25 01:40:36;;;;;;;;;27.50;27.00;;;;;14.84;64.25;101989.41;4961332;28;47259;-76
2021/06/25 01:43:02;;;;;;;;;26.00;25.00;;;;;14.81;64.53;101983.38;4960481;28;45348;-76
2021/06/25 01:45:30;;;;;;;;;32.75;30.25;;;;;14.78;64.75;101979.03;4962673;28;45248;-76
2021/06/25 01:47:55;;;;;;;;;33.00;30.00;;;;;14.74;64.78;101978.25;4962816;28;45238;-76
2021/06/25 01:50:23;;;;;;;;;28.75;27.25;;;;;14.72;64.85;101981.84;4962576;28;45606;-76
2021/06/25 01:53:00;;;;;;;;;29.50;25.25;;;;;14.69;65.29;101979.31;4962476;28;45199;-76
2021/06/25 01:55:27;;;;;;;;;26.50;24.00;;;;;14.63;65.25;101973.31;4960690;28;45273;-76
2021/06/25 01:57:53;;;;;;;;;31.50;27.75;;;;;14.62;65.29;101974.22;4962081;28;45436;-76
2021/06/25 02:00:21;;;;;;;;;27.25;26.00;;;;;14.57;65.28;101975.28;4961541;28;46463;-75
2021/06/25 02:02:46;;;;;;;;;25.25;24.75;;;;;14.55;65.53;101975.31;4962350;28;45472;-76
2021/06/25 02:05:14;;;;;;;;;26.50;24.75;;;;;14.58;65.75;101977.00;4977581;28;45310;-76
2021/06/25 02:07:40;;;;;;;;;25.25;24.00;;;;;14.53;65.59;101971.84;4961995;28;45582;-76
2021/06/25 02:10:09;;;;;;;;;26.25;24.50;;;;;14.52;65.70;101964.81;4957165;28;45305;-76
2021/06/25 02:12:36;;;;;;;;;32.50;29.75;;;;;14.53;65.83;101969.19;4960327;28;45950;-76
2021/06/25 02:15:04;;;;;;;;;29.75;28.75;;;;;14.50;65.73;101969.28;4962238;28;45239;-75
2021/06/25 02:17:29;;;;;;;;;25.75;24.50;;;;;14.49;65.79;101957.81;4961535;28;45703;-75
2021/06/25 02:19:54;;;;;;;;;27.75;26.00;;;;;14.50;65.78;101958.69;4961267;28;46193;-75
2021/06/25 02:22:20;;;;;;;;;29.25;27.00;;;;;14.48;66.15;101944.66;4962234;28;45219;-75
2021/06/25 04:09:23;;;;;;;;;29.25;26.00;;;;;14.04;68.73;101924.78;5669090;23;46919;-75
2021/06/25 04:11:48;;;;;;;;;28.00;26.75;;;;;14.02;69.00;101916.91;4973091;28;45446;-75
2021/06/25 04:14:14;;;;;;;;;27.50;26.50;;;;;14.05;68.88;101918.59;4971876;28;45335;-75
2021/06/25 04:16:39;;;;;;;;;34.75;29.50;;;;;14.10;69.18;101914.00;4978796;28;45394;-75
2021/06/25 04:19:04;;;;;;;;;31.50;30.25;;;;;14.13;68.87;101913.06;4977509;28;47120;-75
2021/06/25 04:21:30;;;;;;;;;31.25;30.25;;;;;14.16;68.78;101919.13;4978244;28;45395;-75
2021/06/25 04:23:55;;;;;;;;;41.00;31.75;;;;;14.18;69.20;101913.78;4978923;28;45596;-75
2021/06/25 04:26:21;;;;;;;;;32.50;28.50;;;;;14.24;69.15;101908.34;4976464;28;45404;-75
2021/06/25 04:28:46;;;;;;;;;32.00;30.25;;;;;14.34;68.98;101922.16;4979506;28;46266;-75
2021/06/25 04:31:11;;;;;;;;;32.75;30.00;;;;;14.39;69.05;101920.25;4977980;28;45425;-75
2021/06/25 04:33:39;;;;;;;;;32.00;30.50;;;;;14.48;68.72;101920.84;4979092;28;45245;-75
2021/06/25 04:36:04;;;;;;;;;35.00;30.00;;;;;14.60;68.88;101928.41;4979298;28;45522;-75
2021/06/25 04:38:30;;;;;;;;;35.25;31.75;;;;;14.65;68.89;101919.47;4979991;28;45386;-75
2021/06/25 04:40:56;;;;;;;;;31.00;30.00;;;;;14.77;68.76;101931.44;4979408;28;45205;-75
2021/06/25 04:43:21;;;;;;;;;33.75;30.25;;;;;14.81;68.83;101923.38;4979040;28;45142;-75
2021/06/25 04:45:47;;;;;;;;;33.25;28.75;;;;;14.85;68.55;101925.03;4978213;28;45494;-75
2021/06/25 04:48:15;;;;;;;;;33.75;30.50;;;;;14.92;68.64;101923.03;4981641;28;46970;-74
2021/06/25 04:50:42;;;;;;;;;29.25;27.50;;;;;15.00;68.20;101922.78;4982473;28;45927;-74
2021/06/25 04:53:08;;;;;;;;;31.00;27.25;;;;;15.05;68.28;101923.50;4982737;28;45396;-74
2021/06/25 04:55:43;;;;;;;;;40.00;30.75;;;;;15.09;68.46;101924.25;4982460;28;45442;-73
2021/06/25 04:58:11;;;;;;;;;30.50;28.75;;;;;15.16;68.29;101920.50;4979724;28;46496;-73
2021/06/25 05:00:37;;;;;;;;;28.25;25.00;;;;;15.28;67.93;101924.50;4982897;28;45723;-74
2021/06/25 05:03:04;;;;;;;;;29.50;27.25;;;;;15.41;67.79;101922.31;4981512;28;45226;-73
2021/06/25 05:05:30;;;;;;;;;32.75;28.75;;;;;15.56;67.83;101922.69;4981264;28;46770;-73
2021/06/25 05:07:55;;;;;;;;;33.50;31.00;;;;;15.62;67.83;101921.63;4980877;28;46743;-74
2021/06/25 05:10:20;;;;;;;;;34.75;33.00;;;;;15.71;67.80;101926.56;4982088;28;45273;-74
2021/06/25 05:12:46;;;;;;;;;31.75;27.00;;;;;15.76;67.61;101923.75;4978321;28;45783;-74
2021/06/25 05:15:12;;;;;;;;;38.75;29.25;;;;;15.80;67.24;101929.84;4972172;28;45331;-74
2021/06/25 05:17:37;;;;;;;;;27.25;22.50;;;;;15.78;67.08;101927.22;4980720;28;48437;-73
2021/06/25 05:20:04;;;;;;;;;31.50;26.75;;;;;15.78;67.02;101915.78;4981309;28;45331;-73
2021/06/25 05:22:30;;;;;;;;;35.75;33.00;;;;;15.85;66.93;101919.94;4980491;28;45432;-73
2021/06/25 05:24:56;;;;;;;;;34.50;32.25;;;;;15.91;66.94;101932.06;4979711;28;46165;-74
2021/06/25 05:27:21;;;;;;;;;28.75;25.75;;;;;15.94;66.97;101930.19;4981993;28;45319;-74
2021/06/25 05:29:47;;;;;;;;;22.50;21.25;;;;;15.95;66.72;101933.72;4982237;28;45421;-74
2021/06/25 05:32:12;;;;;;;;;25.75;23.75;;;;;15.98;66.75;101931.78;4981325;28;45467;-74
2021/06/25 05:34:38;;;;;;;;;25.50;25.50;;;;;15.98;66.91;101929.16;4980621;28;47113;-74
2021/06/25 05:37:04;;;;;;;;;27.00;23.75;;;;;15.94;66.70;101927.53;4980764;28;48437;-74
2021/06/25 05:39:29;;;;;;;;;30.25;29.00;;;;;16.03;66.51;101926.31;4980753;28;45462;-74
2021/06/25 05:41:55;;;;;;;;;28.25;25.50;;;;;16.12;66.01;101926.94;4982048;28;45392;-74
2021/06/25 05:44:20;;;;;;;;;32.00;25.50;;;;;16.14;66.28;101927.75;4980574;28;47100;-74
2021/06/25 05:46:45;;;;;;;;;27.75;21.75;;;;;16.16;66.12;101921.47;4980717;28;47059;-74
2021/06/25 05:49:11;;;;;;;;;26.50;23.25;;;;;16.20;66.10;101925.72;4982269;28;45336;-74
2021/06/25 05:51:36;;;;;;;;;28.50;24.75;;;;;16.22;66.42;101927.47;4982167;28;45459;-74
2021/06/25 05:54:01;;;;;;;;;26.00;25.25;;;;;16.22;66.63;101919.50;4980530;28;45356;-74
2021/06/25 05:56:27;;;;;;;;;28.50;24.75;;;;;16.29;66.44;101923.66;4980536;28;47160;-74
2021/06/25 05:58:52;;;;;;;;;23.00;21.75;;;;;16.31;65.97;101919.16;4979475;28;45820;-74
2021/06/25 06:01:17;;;;;;;;;28.75;26.75;;;;;16.38;66.32;101927.72;4980467;28;45407;-74
2021/06/25 06:03:45;;;;;;;;;29.00;25.75;;;;;16.44;65.94;101929.28;4980943;28;45482;-74
2021/06/25 06:06:10;;;;;;;;;27.75;27.75;;;;;16.45;66.23;101920.38;4980639;28;45494;-74
2021/06/25 06:08:37;;;;;;;;;44.00;36.50;;;;;16.44;66.22;101918.66;4981041;28;45236;-74
2021/06/25 06:11:03;;;;;;;;;42.50;35.25;;;;;16.46;66.80;101916.81;4981280;28;45321;-74
2021/06/25 06:13:28;;;;;;;;;33.75;27.50;;;;;16.43;66.62;101925.75;4981426;28;45425;-74
2021/06/25 06:15:55;;;;;;;;;33.00;25.75;;;;;16.44;66.70;101926.63;4981402;28;46192;-74
2021/06/25 06:18:27;;;;;;;;;33.25;27.50;;;;;16.48;66.66;101930.88;4969349;28;45359;-74
2021/06/25 06:20:52;;;;;;;;;25.00;25.00;;;;;16.47;66.44;101930.00;4981551;28;45479;-74
2021/06/25 06:31:32;;;;;;;;;30.50;25.50;;;;;16.72;65.58;101920.22;4980796;28;45305;-74
2021/06/25 06:34:00;;;;;;;;;25.00;22.25;;;;;16.82;64.93;101918.91;4981188;28;45496;-74
2021/06/25 06:36:29;;;;;;;;;27.00;23.25;;;;;16.92;64.26;101915.88;4980949;28;45648;-74
2021/06/25 06:38:58;;;;;;;;;27.25;23.50;;;;;17.01;63.85;101912.88;4981099;28;45292;-74
2021/06/25 06:41:26;;;;;;;;;22.50;14.50;;;;;17.08;63.27;101908.16;4979413;28;45471;-74
2021/06/25 06:43:52;;;;;;;;;27.25;23.00;;;;;17.18;62.70;101914.84;4980033;28;45286;-74
2021/06/25 06:46:17;;;;;;;;;24.50;22.75;;;;;17.26;62.47;101911.00;4976113;28;45592;-74
2021/06/25 06:48:46;;;;;;;;;24.25;22.25;;;;;17.30;61.69;101910.78;4981330;28;45312;-74
2021/06/25 06:51:13;;;;;;;;;26.75;23.25;;;;;17.36;61.46;101911.47;4981518;28;45245;-74
2021/06/25 06:53:43;;;;;;;;;24.50;21.75;;;;;17.41;60.89;101909.44;4967366;28;45474;-74
2021/06/25 06:56:15;;;;;;;;;26.50;24.00;;;;;17.44;61.22;101906.66;4978596;28;45778;-74
2021/06/25 06:58:40;;;;;;;;;33.00;24.75;;;;;17.46;60.53;101906.63;4980104;28;45498;-74
2021/06/25 07:01:07;;;;;;;;;27.75;23.75;;;;;17.51;60.49;101916.09;4980876;28;45323;-74
2021/06/25 07:03:33;;;;;;;;;28.50;26.75;;;;;17.52;60.49;101909.84;4980448;28;45547;-74
2021/06/25 07:05:58;;;;;;;;;30.00;26.25;;;;;17.56;59.97;101915.88;4979940;28;46126;-74
2021/06/25 07:08:24;;;;;;;;;32.50;25.25;;;;;17.60;60.06;101914.84;4980493;28;45299;-74
2021/06/25 07:10:49;;;;;;;;;27.00;24.75;;;;;17.65;59.95;101914.63;4975568;28;45481;-74
2021/06/25 07:13:15;;;;;;;;;26.75;22.75;;;;;17.68;59.60;101911.81;4980972;28;45571;-74
2021/06/25 07:15:40;;;;;;;;;27.00;23.50;;;;;17.72;59.62;101913.44;4974223;28;46692;-74
2021/06/25 07:18:06;;;;;;;;;23.25;21.75;;;;;17.78;59.63;101917.59;4975450;28;45741;-74
2021/06/25 07:20:32;;;;;;;;;27.50;23.25;;;;;17.83;59.46;101914.75;4980087;28;45159;-74
2021/06/25 07:22:58;;;;;;;;;26.00;21.50;;;;;17.87;58.83;101911.88;4978749;28;46290;-74
2021/06/25 07:25:23;;;;;;;;;22.75;21.50;;;;;17.90;59.13;101913.53;4978292;28;48260;-74
2021/06/25 07:27:48;;;;;;;;;25.00;22.75;;;;;17.90;59.00;101907.34;4978760;28;45289;-74
2021/06/25 07:30:14;;;;;;;;;26.00;23.00;;;;;17.90;59.16;101905.56;4979471;28;45523;-74
2021/06/25 07:32:40;;;;;;;;;25.00;21.25;;;;;17.90;58.84;101900.25;4978353;28;46400;-75
2021/06/25 07:35:08;;;;;;;;;25.50;21.25;;;;;17.97;58.50;101904.34;4979019;28;47327;-75
2021/06/25 07:37:33;;;;;;;;;23.00;22.00;;;;;18.01;58.80;101899.72;4979516;28;45309;-75
2021/06/25 07:39:59;;;;;;;;;24.25;22.50;;;;;17.99;58.41;101891.84;4980074;28;45305;-75
2021/06/25 07:42:25;;;;;;;;;28.00;24.00;;;;;18.04;58.34;101896.06;4980324;28;45249;-74
2021/06/25 07:44:51;;;;;;;;;21.75;19.75;;;;;18.02;57.58;101887.28;4980585;28;45355;-74
2021/06/25 07:47:17;;;;;;;;;16.50;15.00;;;;;18.00;57.49;101887.38;4979845;28;45143;-75
2021/06/25 07:49:43;;;;;;;;;20.00;16.75;;;;;18.00;57.01;101882.91;4979050;28;45224;-75
2021/06/25 07:52:08;;;;;;;;;19.00;14.25;;;;;17.98;56.71;101889.22;4977863;28;45241;-75
2021/06/25 07:54:33;;;;;;;;;19.75;16.50;;;;;17.97;56.51;101888.38;4979707;28;46283;-75
2021/06/25 07:56:59;;;;;;;;;20.00;18.50;;;;;17.95;56.38;101886.72;4978520;28;45182;-75
2021/06/25 07:59:24;;;;;;;;;23.00;20.50;;;;;17.94;56.28;101882.31;4979770;28;45967;-75
2021/06/25 08:01:49;;;;;;;;;21.25;21.25;;;;;17.95;56.53;101878.75;4980118;28;45200;-75
2021/06/25 08:04:15;;;;;;;;;20.00;20.00;;;;;17.93;56.52;101873.47;4979332;28;46313;-75
2021/06/25 08:06:40;;;;;;;;;20.50;19.75;;;;;17.94;56.21;101877.88;4979786;28;45352;-75
2021/06/25 08:09:07;;;;;;;;;21.75;16.75;;;;;17.93;56.23;101870.81;4979442;28;45586;-75
2021/06/25 08:11:33;;;;;;;;;21.50;20.50;;;;;17.95;56.33;101881.41;4979549;28;45340;-75
2021/06/25 08:13:58;;;;;;;;;23.50;21.00;;;;;17.94;56.53;101875.22;4979455;28;45359;-75
2021/06/25 08:16:24;;;;;;;;;26.25;22.50;;;;;17.93;56.34;101870.81;4981687;28;45392;-75
2021/06/25 08:18:56;;;;;;;;;22.00;20.25;;;;;17.95;56.21;101876.09;4974003;28;45367;-75
2021/06/25 08:21:22;;;;;;;;;21.75;19.75;;;;;17.97;56.78;101864.44;4985874;28;45368;-74
2021/06/25 08:23:47;;;;;;;;;20.50;18.25;;;;;18.03;56.33;101867.72;4983401;28;45627;-74
2021/06/25 08:26:13;;;;;;;;;20.75;19.25;;;;;18.05;56.51;101865.88;4984512;28;45414;-75
2021/06/25 08:28:38;;;;;;;;;17.50;17.00;;;;;18.09;56.56;101851.50;4984674;28;45715;-74
2021/06/25 08:31:03;;;;;;;;;29.00;21.25;;;;;18.14;56.56;101859.25;4983802;28;47094;-75
2021/06/25 08:33:29;;;;;;;;;23.50;19.75;;;;;18.15;56.60;101861.81;4986244;28;45408;-75
2021/06/25 08:35:54;;;;;;;;;22.50;22.00;;;;;18.16;56.65;101855.59;4984152;28;45344;-74
2021/06/25 08:38:20;;;;;;;;;25.50;19.50;;;;;18.20;56.31;101859.84;4985347;28;45425;-75
2021/06/25 08:40:45;;;;;;;;;20.75;20.00;;;;;18.19;56.18;101842.19;4984060;28;46569;-74
2021/06/25 08:43:11;;;;;;;;;22.50;21.00;;;;;18.23;56.02;101850.84;4983177;28;45479;-76
2021/06/25 08:45:37;;;;;;;;;18.75;18.75;;;;;18.25;56.29;101841.00;4985954;28;45267;-76
2021/06/25 08:48:05;;;;;;;;;19.50;16.25;;;;;18.27;56.42;101832.97;4985534;28;45297;-74
2021/06/25 08:50:38;;;;;;;;;22.25;20.75;;;;;18.29;56.92;101842.59;4985393;28;45657;-74
2021/06/25 08:53:03;;;;;;;;;25.00;20.50;;;;;18.38;56.45;101840.41;4985418;28;45399;-74
2021/06/25 08:55:28;;;;;;;;;25.25;21.75;;;;;18.46;57.03;101848.03;4984390;28;46086;-74
2021/06/25 08:57:54;;;;;;;;;25.75;21.75;;;;;18.57;56.28;101843.03;4982594;28;45487;-74
2021/06/25 09:00:21;;;;;;;;;24.50;20.50;;;;;18.64;56.15;101836.44;4985811;28;45470;-74
2021/06/25 09:02:47;;;;;;;;;24.25;20.50;;;;;18.68;55.90;101839.84;4983467;28;48154;-73
2021/06/25 09:05:22;;;;;;;;;23.50;21.75;;;;;18.72;55.88;101840.53;4984213;28;45691;-73
2021/06/25 09:07:47;;;;;;;;;26.00;24.50;;;;;18.71;55.80;101833.50;4984407;28;45332;-73
2021/06/25 09:10:15;;;;;;;;;24.25;21.25;;;;;18.70;55.67;101832.63;4983085;28;46094;-73
2021/06/25 09:13:18;;;;;;;;;21.25;18.00;;;;;18.64;55.15;101833.78;4984362;28;45532;-73
2021/06/25 09:15:43;;;;;;;;;17.50;17.50;;;;;18.63;55.66;101828.56;4979984;28;45979;-73
2021/06/25 09:18:11;;;;;;;;;25.50;21.25;;;;;18.66;55.43;101823.06;4983599;28;45462;-72
2021/06/25 09:20:45;;;;;;;;;24.00;19.75;;;;;18.71;55.61;101825.50;4985241;28;45443;-72
2021/06/25 09:23:15;;;;;;;;;19.25;17.50;;;;;18.76;55.38;101824.34;4984942;28;46245;-73
2021/06/25 09:25:52;;;;;;;;;21.00;18.00;;;;;18.83;55.77;101829.34;4984754;28;45771;-75
2021/06/25 09:28:25;;;;;;;;;22.50;17.50;;;;;18.85;56.16;101823.00;4982363;28;45478;-79
2021/06/25 09:30:51;;;;;;;;;26.75;22.75;;;;;18.93;56.37;101822.63;4980620;28;45379;-77
2021/06/25 09:33:16;;;;;;;;;27.75;24.50;;;;;19.03;55.55;101815.00;4973739;28;45542;-77
2021/06/25 09:35:42;;;;;;;;;23.00;15.75;;;;;19.08;55.74;101810.31;4981526;28;45261;-77
2021/06/25 09:38:07;;;;;;;;;23.00;20.25;;;;;19.20;55.77;101806.16;4981880;28;45422;-77
2021/06/25 09:40:37;;;;;;;;;17.00;17.00;;;;;19.28;55.42;101804.88;4981838;28;45269;-77
2021/06/25 09:43:12;;;;;;;;;22.25;20.25;;;;;19.43;56.23;101806.72;4980918;28;46302;-77
2021/06/25 09:45:48;;;;;;;;;20.75;16.50;;;;;19.50;55.20;101796.59;4981766;28;45246;-77
2021/06/25 09:48:14;;;;;;;;;16.50;16.50;;;;;19.58;55.91;101798.84;4981898;28;45439;-76
2021/06/25 09:50:39;;;;;;;;;21.25;18.50;;;;;19.71;55.64;101809.69;4981771;28;45579;-76
2021/06/25 09:53:06;;;;;;;;;18.00;17.25;;;;;19.77;55.06;101809.38;4981878;28;46203;-76
2021/06/25 09:55:50;;;;;;;;;19.50;17.50;;;;;19.84;54.34;101795.66;4981973;28;45791;-78
2021/06/25 09:58:43;;;;;;;;;17.25;16.50;;;;;19.89;54.07;101790.94;4981953;28;45371;-78
2021/06/25 10:01:22;;;;;;;;;18.75;17.25;;;;;19.94;54.11;101794.22;4981469;28;45329;-77
2021/06/25 10:03:57;;;;;;;;;19.25;15.75;;;;;19.98;53.84;101792.22;4981938;28;46365;-77
2021/06/25 10:06:27;;;;;;;;;17.00;14.50;;;;;20.00;54.56;101793.03;4980949;28;45427;-77
2021/06/25 10:08:53;;;;;;;;;19.00;16.75;;;;;20.06;53.94;101787.31;4980975;28;45290;-77
2021/06/25 10:11:24;;;;;;;;;17.75;15.75;;;;;20.11;54.25;101787.09;4969604;28;45348;-77
2021/06/25 10:13:52;;;;;;;;;18.25;15.75;;;;;20.16;54.66;101782.34;4981726;28;45595;-77
2021/06/25 10:16:18;;;;;;;;;17.25;16.75;;;;;20.19;54.55;101782.19;4980870;28;45256;-77
2021/06/25 10:18:46;;;;;;;;;19.25;16.00;;;;;20.23;54.77;101791.72;4981549;28;45238;-77
2021/06/25 10:21:20;;;;;;;;;16.25;16.25;;;;;20.24;54.09;101777.44;4980913;28;45393;-77
2021/06/25 10:23:51;;;;;;;;;18.75;14.25;;;;;20.29;54.15;101777.16;4981358;28;46342;-77
2021/06/25 10:26:19;;;;;;;;;16.25;16.25;;;;;20.35;54.23;101786.59;4980725;28;45202;-77
2021/06/25 10:28:46;;;;;;;;;16.25;14.50;;;;;20.31;54.21;101777.94;4976801;28;45253;-77
2021/06/25 10:31:12;;;;;;;;;15.50;14.25;;;;;20.33;54.11;101769.81;4980121;28;45351;-77
2021/06/25 10:33:39;;;;;;;;;15.25;15.25;;;;;20.35;54.30;101768.78;4981560;28;45361;-78
2021/06/25 10:36:07;;;;;;;;;19.50;14.75;;;;;20.38;53.97;101767.75;4980868;28;45762;-78
2021/06/25 10:38:35;;;;;;;;;14.25;13.50;;;;;20.44;54.18;101770.06;4981410;28;45274;-78
2021/06/25 10:41:05;;;;;;;;;14.00;14.00;;;;;20.43;54.46;101760.34;4980995;28;45431;-77
2021/06/25 10:43:40;;;;;;;;;18.25;16.25;;;;;20.51;54.13;101769.69;4981147;28;46761;-78
2021/06/25 10:46:06;;;;;;;;;18.50;16.50;;;;;20.55;54.24;101760.53;4980548;28;45689;-78
2021/06/25 10:48:40;;;;;;;;;18.00;16.50;;;;;20.62;54.42;101761.91;4980778;28;45297;-78
2021/06/25 10:51:26;;;;;;;;;18.00;17.00;;;;;20.67;54.33;101750.94;4980993;28;45486;-78
2021/06/25 10:54:21;;;;;;;;;15.00;12.50;;;;;20.77;53.82;101756.56;4980432;28;45407;-78
2021/06/25 10:56:50;;;;;;;;;12.25;12.25;;;;;20.87;53.92;101759.56;4979873;28;45294;-78
2021/06/25 10:59:27;;;;;;;;;16.50;16.25;;;;;20.86;53.71;101748.03;4981216;28;45301;-78
2021/06/25 11:01:57;;;;;;;;;19.00;16.50;;;;;20.97;54.07;101750.03;4981186;28;45398;-78
2021/06/25 11:04:41;;;;;;;;;15.25;15.25;;;;;20.99;53.75;101748.13;4979174;28;48042;-78
2021/06/25 11:07:08;;;;;;;;;17.75;15.25;;;;;21.09;53.33;101745.75;4970997;28;45522;-78
2021/06/25 11:09:49;;;;;;;;;11.75;9.75;;;;;21.16;52.87;101742.72;4980545;28;45396;-78
2021/06/25 11:12:15;;;;;;;;;13.00;13.00;;;;;21.16;53.65;101756.09;4980538;28;45600;-78
2021/06/25 11:14:41;;;;;;;;;15.75;12.25;;;;;21.19;53.23;101750.53;4979343;28;46325;-78
2021/06/25 11:17:06;;;;;;;;;10.50;10.00;;;;;21.20;52.70;101749.59;4968772;28;45269;-78
2021/06/25 11:19:37;;;;;;;;;13.25;12.25;;;;;21.31;53.22;101752.44;4980676;28;45200;-78
2021/06/25 11:22:03;;;;;;;;;14.25;10.75;;;;;21.31;53.32;101746.25;4979212;28;46348;-77
2021/06/25 11:24:50;;;;;;;;;10.75;9.75;;;;;21.34;52.31;101743.38;4980062;28;45470;-77
2021/06/25 11:27:16;;;;;;;;;9.25;9.25;;;;;21.41;53.23;101755.38;4980921;28;45563;-77
2021/06/25 11:29:44;;;;;;;;;10.00;10.00;;;;;21.41;53.00;101738.50;4980819;28;45221;-77
2021/06/25 11:32:11;;;;;;;;;14.25;10.50;;;;;21.42;52.68;101732.19;4978912;28;46092;-77
2021/06/25 11:34:36;;;;;;;;;11.00;11.00;;;;;21.50;53.26;101737.91;4979799;28;46188;-77
2021/06/25 11:37:02;;;;;;;;;9.25;9.25;;;;;21.49;53.04;101733.50;4979311;28;45444;-77
2021/06/25 11:39:32;;;;;;;;;11.00;11.00;;;;;21.46;53.50;101728.34;4980303;28;45360;-77
2021/06/25 11:42:00;;;;;;;;;10.75;10.25;;;;;21.51;53.28;101731.59;4980337;28;45435;-77
2021/06/25 11:44:26;;;;;;;;;10.25;8.00;;;;;21.51;53.40;101736.94;4980394;28;46140;-77
2021/06/25 11:46:55;;;;;;;;;12.00;10.50;;;;;21.48;53.15;101737.16;4980016;28;45469;-77
2021/06/25 11:49:22;;;;;;;;;11.50;9.50;;;;;21.47;52.98;101732.75;4980186;28;45221;-77
2021/06/25 11:51:48;;;;;;;;;15.00;10.75;;;;;21.44;53.15;101730.28;4978105;28;45466;-77
2021/06/25 11:54:20;;;;;;;;;12.00;11.00;;;;;21.46;53.38;101736.38;4980100;28;46280;-77
2021/06/25 11:56:46;;;;;;;;;12.75;10.50;;;;;21.40;52.92;101729.63;4979880;28;45551;-77
2021/06/25 11:59:15;;;;;;;;;12.00;9.50;;;;;21.38;53.21;101733.34;4980212;28;45362;-77
2021/06/25 12:01:58;;;;;;;;;9.75;8.50;;;;;21.33;53.98;101731.84;4979795;28;45431;-77
2021/06/25 12:04:31;;;;;;;;;13.50;12.00;;;;;21.31;54.04;101736.41;4980080;28;45573;-77
2021/06/25 12:06:59;;;;;;;;;11.75;8.00;;;;;21.33;54.32;101739.84;4979228;28;45171;-77
2021/06/25 12:09:37;;;;;;;;;9.25;7.00;;;;;21.33;55.35;101734.50;4979335;28;45284;-77
2021/06/25 12:12:02;;;;;;;;;5.50;5.00;;;;;21.27;55.54;101736.69;4980244;28;45301;-77
2021/06/25 12:14:40;;;;;;;;;4.50;3.75;;;;;21.30;56.34;101748.06;4979785;28;45919;-77
2021/06/25 12:17:06;;;;;;;;;5.25;5.00;;;;;21.28;56.84;101749.13;4975158;28;45505;-77
2021/06/25 12:19:31;;;;;;;;;8.00;6.50;;;;;21.24;55.94;101746.63;4979537;28;45463;-77
2021/06/25 12:22:07;;;;;;;;;7.75;7.50;;;;;21.23;56.67;101742.25;4980049;28;45185;-77
2021/06/25 12:24:47;;;;;;;;;5.75;5.75;;;;;21.22;57.18;101750.34;4978639;28;46741;-77
2021/06/25 12:27:13;;;;;;;;;9.75;9.75;;;;;21.20;56.41;101749.59;4980028;28;45505;-77
2021/06/25 12:29:38;;;;;;;;;13.75;10.25;;;;;21.19;56.28;101756.75;4979733;28;46244;-77
2021/06/25 12:32:14;;;;;;;;;5.25;3.75;;;;;21.20;58.16;101752.25;4970958;28;45494;-77
2021/06/25 12:34:39;;;;;;;;;6.00;6.00;;;;;21.20;58.72;101753.13;4976284;28;45394;-77
2021/06/25 12:37:04;;;;;;;;;10.00;6.50;;;;;21.20;58.71;101752.25;4979951;28;45346;-78
2021/06/25 12:39:30;;;;;;;;;7.50;6.25;;;;;21.19;58.78;101745.19;4979116;28;45482;-78
2021/06/25 12:41:59;;;;;;;;;5.00;4.25;;;;;21.20;58.89;101744.25;4979794;28;45264;-78
2021/06/25 12:44:25;;;;;;;;;11.00;10.00;;;;;21.24;59.52;101746.63;4979554;28;46483;-78
2021/06/25 12:47:05;;;;;;;;;8.50;8.50;;;;;21.32;58.63;101745.28;4979841;28;45327;-78
2021/06/25 12:49:34;;;;;;;;;9.00;8.00;;;;;21.36;56.43;101742.31;4979568;28;45263;-79
2021/06/25 12:52:00;;;;;;;;;4.00;4.00;;;;;21.38;58.61;101734.22;4967060;28;45478;-79
2021/06/25 12:54:30;;;;;;;;;8.50;7.50;;;;;21.42;57.43;101726.84;4978585;28;45395;-79
2021/06/25 12:56:56;;;;;;;;;6.25;4.25;;;;;21.44;58.70;101732.94;4979833;28;45603;-79
2021/06/25 12:59:24;;;;;;;;;6.00;6.00;;;;;21.43;58.19;101724.09;4978753;28;45592;-78
2021/06/25 13:01:55;;;;;;;;;4.00;4.00;;;;;21.48;58.74;101721.13;4979390;28;45532;-78
2021/06/25 13:04:29;;;;;;;;;7.25;5.25;;;;;21.50;58.80;101723.69;4983083;28;45262;-78
2021/06/25 13:07:02;;;;;;;;;6.00;4.50;;;;;21.51;58.78;101717.38;4982638;28;45547;-78